sensor_id;sensor_type;location;lat;lon;timestamp;P1;durP1;ratioP1;P2;durP2;ratioP2
15748;SDS011;7976;52.526;13.326;2023-08-17T00:01:33;9.23;;;2.70;;
15748;SDS011;7976;52.526;13.326;2023-08-17T00:03:59;7.93;;;2.55;;
15748;SDS011;7976;52.526;13.326;2023-08-17T00:06:27;5.93;;;2.40;;
15748;SDS011;7976;52.526;13.326;2023-08-17T00:08:55;10.68;;;2.58;;
15748;SDS011;7976;52.526;13.326;2023-08-17T00:11:22;7.32;;;2.47;;
15748;SDS011;7976;52.526;13.326;2023-08-17T00:13:50;9.38;;;2.50;;
15748;SDS011;7976;52.526;13.326;2023-08-17T00:16:17;7.45;;;2.72;;
15748;SDS011;7976;52.526;13.326;2023-08-17T00:18:44;9.30;;;2.88;;
15748;SDS011;7976;52.526;13.326;2023-08-17T00:21:11;9.18;;;2.65;;
15748;SDS011;7976;52.526;13.326;2023-08-17T00:23:38;6.75;;;2.40;;
15748;SDS011;7976;52.526;13.326;2023-08-17T00:26:07;9.25;;;2.65;;
15748;SDS011;7976;52.526;13.326;2023-08-17T00:28:35;7.85;;;2.30;;
15748;SDS011;7976;52.526;13.326;2023-08-17T00:31:02;8.15;;;2.70;;
15748;SDS011;7976;52.526;13.326;2023-08-17T00:33:29;7.40;;;2.42;;
15748;SDS011;7976;52.526;13.326;2023-08-17T00:35:56;8.45;;;2.58;;
15748;SDS011;7976;52.526;13.326;2023-08-17T00:38:24;6.82;;;2.72;;
15748;SDS011;7976;52.526;13.326;2023-08-17T00:40:52;9.85;;;2.90;;
15748;SDS011;7976;52.526;13.326;2023-08-17T00:43:20;9.18;;;2.85;;
15748;SDS011;7976;52.526;13.326;2023-08-17T00:45:47;8.68;;;2.78;;
15748;SDS011;7976;52.526;13.326;2023-08-17T00:48:14;11.52;;;2.80;;
15748;SDS011;7976;52.526;13.326;2023-08-17T00:50:41;8.38;;;2.40;;
15748;SDS011;7976;52.526;13.326;2023-08-17T00:53:11;10.90;;;2.70;;
15748;SDS011;7976;52.526;13.326;2023-08-17T00:55:41;8.23;;;2.80;;
15748;SDS011;7976;52.526;13.326;2023-08-17T00:58:09;6.65;;;2.65;;
15748;SDS011;7976;52.526;13.326;2023-08-17T01:00:39;8.00;;;2.70;;
15748;SDS011;7976;52.526;13.326;2023-08-17T01:03:06;7.93;;;3.05;;
15748;SDS011;7976;52.526;13.326;2023-08-17T01:05:33;6.30;;;2.50;;
15748;SDS011;7976;52.526;13.326;2023-08-17T01:08:01;8.65;;;2.60;;
15748;SDS011;7976;52.526;13.326;2023-08-17T01:10:29;9.50;;;2.63;;
15748;SDS011;7976;52.526;13.326;2023-08-17T01:13:09;8.15;;;2.78;;
15748;SDS011;7976;52.526;13.326;2023-08-17T01:15:46;7.93;;;2.85;;
15748;SDS011;7976;52.526;13.326;2023-08-17T01:18:20;10.13;;;3.10;;
15748;SDS011;7976;52.526;13.326;2023-08-17T01:20:50;11.32;;;2.90;;
15748;SDS011;7976;52.526;13.326;2023-08-17T01:23:23;9.20;;;3.20;;
15748;SDS011;7976;52.526;13.326;2023-08-17T01:25:49;8.70;;;3.08;;
15748;SDS011;7976;52.526;13.326;2023-08-17T01:28:18;10.02;;;2.88;;
15748;SDS011;7976;52.526;13.326;2023-08-17T01:30:47;9.55;;;2.90;;
15748;SDS011;7976;52.526;13.326;2023-08-17T01:33:24;14.52;;;3.13;;
15748;SDS011;7976;52.526;13.326;2023-08-17T01:36:04;8.25;;;2.70;;
15748;SDS011;7976;52.526;13.326;2023-08-17T01:38:41;8.30;;;3.13;;
15748;SDS011;7976;52.526;13.326;2023-08-17T01:41:10;9.65;;;3.00;;
15748;SDS011;7976;52.526;13.326;2023-08-17T01:43:41;10.30;;;2.80;;
15748;SDS011;7976;52.526;13.326;2023-08-17T01:46:12;9.55;;;2.92;;
15748;SDS011;7976;52.526;13.326;2023-08-17T01:48:40;9.32;;;3.08;;
15748;SDS011;7976;52.526;13.326;2023-08-17T01:51:07;7.72;;;2.63;;
15748;SDS011;7976;52.526;13.326;2023-08-17T01:53:36;8.25;;;3.20;;
15748;SDS011;7976;52.526;13.326;2023-08-17T01:56:10;9.32;;;2.97;;
15748;SDS011;7976;52.526;13.326;2023-08-17T01:58:38;7.95;;;2.70;;
15748;SDS011;7976;52.526;13.326;2023-08-17T02:01:05;10.57;;;2.97;;
15748;SDS011;7976;52.526;13.326;2023-08-17T02:03:32;13.10;;;3.20;;
15748;SDS011;7976;52.526;13.326;2023-08-17T02:05:59;7.00;;;2.85;;
15748;SDS011;7976;52.526;13.326;2023-08-17T02:08:26;8.55;;;2.63;;
15748;SDS011;7976;52.526;13.326;2023-08-17T02:10:53;8.02;;;2.70;;
15748;SDS011;7976;52.526;13.326;2023-08-17T02:13:22;9.48;;;2.88;;
15748;SDS011;7976;52.526;13.326;2023-08-17T02:15:50;7.82;;;2.95;;
15748;SDS011;7976;52.526;13.326;2023-08-17T02:18:16;9.00;;;2.70;;
15748;SDS011;7976;52.526;13.326;2023-08-17T02:20:43;7.65;;;2.40;;
15748;SDS011;7976;52.526;13.326;2023-08-17T02:23:11;7.25;;;2.60;;
15748;SDS011;7976;52.526;13.326;2023-08-17T02:25:38;8.57;;;2.63;;
15748;SDS011;7976;52.526;13.326;2023-08-17T02:28:06;10.25;;;3.05;;
15748;SDS011;7976;52.526;13.326;2023-08-17T02:30:34;10.88;;;2.95;;
15748;SDS011;7976;52.526;13.326;2023-08-17T02:33:01;10.50;;;3.20;;
15748;SDS011;7976;52.526;13.326;2023-08-17T02:35:29;9.68;;;2.95;;
15748;SDS011;7976;52.526;13.326;2023-08-17T02:37:56;8.95;;;3.20;;
15748;SDS011;7976;52.526;13.326;2023-08-17T02:40:23;7.82;;;2.78;;
15748;SDS011;7976;52.526;13.326;2023-08-17T02:42:50;11.73;;;3.03;;
15748;SDS011;7976;52.526;13.326;2023-08-17T02:45:17;12.88;;;3.50;;
15748;SDS011;7976;52.526;13.326;2023-08-17T02:47:45;9.77;;;3.38;;
15748;SDS011;7976;52.526;13.326;2023-08-17T02:50:14;9.48;;;3.03;;
15748;SDS011;7976;52.526;13.326;2023-08-17T02:52:41;10.85;;;3.80;;
15748;SDS011;7976;52.526;13.326;2023-08-17T02:55:08;11.23;;;3.47;;
15748;SDS011;7976;52.526;13.326;2023-08-17T02:57:35;11.10;;;3.50;;
15748;SDS011;7976;52.526;13.326;2023-08-17T03:00:03;8.77;;;3.38;;
15748;SDS011;7976;52.526;13.326;2023-08-17T03:02:32;7.65;;;2.80;;
15748;SDS011;7976;52.526;13.326;2023-08-17T03:05:02;12.88;;;3.75;;
15748;SDS011;7976;52.526;13.326;2023-08-17T03:07:30;9.15;;;3.53;;
15748;SDS011;7976;52.526;13.326;2023-08-17T03:09:57;12.10;;;3.17;;
15748;SDS011;7976;52.526;13.326;2023-08-17T03:12:24;7.50;;;2.90;;
15748;SDS011;7976;52.526;13.326;2023-08-17T03:14:52;9.98;;;3.05;;
15748;SDS011;7976;52.526;13.326;2023-08-17T03:17:19;8.80;;;3.30;;
15748;SDS011;7976;52.526;13.326;2023-08-17T03:19:46;10.80;;;3.15;;
15748;SDS011;7976;52.526;13.326;2023-08-17T03:22:16;10.52;;;3.83;;
15748;SDS011;7976;52.526;13.326;2023-08-17T03:24:43;9.95;;;3.00;;
15748;SDS011;7976;52.526;13.326;2023-08-17T03:27:10;9.15;;;3.40;;
15748;SDS011;7976;52.526;13.326;2023-08-17T03:29:37;10.23;;;3.20;;
15748;SDS011;7976;52.526;13.326;2023-08-17T03:32:05;10.80;;;3.60;;
15748;SDS011;7976;52.526;13.326;2023-08-17T03:34:32;9.52;;;2.72;;
15748;SDS011;7976;52.526;13.326;2023-08-17T03:37:00;13.10;;;5.15;;
15748;SDS011;7976;52.526;13.326;2023-08-17T03:39:29;10.27;;;3.80;;
15748;SDS011;7976;52.526;13.326;2023-08-17T03:41:56;11.77;;;4.30;;
15748;SDS011;7976;52.526;13.326;2023-08-17T03:44:22;7.97;;;2.50;;
15748;SDS011;7976;52.526;13.326;2023-08-17T03:46:50;12.50;;;3.05;;
15748;SDS011;7976;52.526;13.326;2023-08-17T03:49:17;10.07;;;3.63;;
15748;SDS011;7976;52.526;13.326;2023-08-17T03:51:44;10.15;;;3.70;;
15748;SDS011;7976;52.526;13.326;2023-08-17T03:54:11;9.75;;;3.42;;
15748;SDS011;7976;52.526;13.326;2023-08-17T03:56:40;10.63;;;3.92;;
15748;SDS011;7976;52.526;13.326;2023-08-17T03:59:07;11.68;;;4.57;;
15748;SDS011;7976;52.526;13.326;2023-08-17T04:01:34;11.38;;;4.28;;
15748;SDS011;7976;52.526;13.326;2023-08-17T04:04:00;9.43;;;3.25;;
15748;SDS011;7976;52.526;13.326;2023-08-17T04:06:28;8.75;;;2.78;;
15748;SDS011;7976;52.526;13.326;2023-08-17T04:08:55;7.45;;;2.40;;
15748;SDS011;7976;52.526;13.326;2023-08-17T04:11:22;9.50;;;3.22;;
15748;SDS011;7976;52.526;13.326;2023-08-17T04:13:50;8.75;;;2.70;;
15748;SDS011;7976;52.526;13.326;2023-08-17T04:16:19;10.77;;;4.18;;
15748;SDS011;7976;52.526;13.326;2023-08-17T04:18:46;12.23;;;5.07;;
15748;SDS011;7976;52.526;13.326;2023-08-17T04:21:13;11.35;;;4.00;;
15748;SDS011;7976;52.526;13.326;2023-08-17T04:23:40;8.48;;;3.03;;
15748;SDS011;7976;52.526;13.326;2023-08-17T04:26:07;8.38;;;2.97;;
15748;SDS011;7976;52.526;13.326;2023-08-17T04:28:35;8.63;;;2.50;;
15748;SDS011;7976;52.526;13.326;2023-08-17T04:31:03;7.05;;;2.28;;
15748;SDS011;7976;52.526;13.326;2023-08-17T04:33:34;12.27;;;2.47;;
15748;SDS011;7976;52.526;13.326;2023-08-17T04:36:01;7.30;;;2.28;;
15748;SDS011;7976;52.526;13.326;2023-08-17T04:38:28;8.52;;;2.13;;
15748;SDS011;7976;52.526;13.326;2023-08-17T04:40:55;8.80;;;2.70;;
15748;SDS011;7976;52.526;13.326;2023-08-17T04:43:22;8.80;;;2.90;;
15748;SDS011;7976;52.526;13.326;2023-08-17T04:45:50;10.18;;;3.10;;
15748;SDS011;7976;52.526;13.326;2023-08-17T04:48:18;8.57;;;2.90;;
15748;SDS011;7976;52.526;13.326;2023-08-17T04:50:46;10.50;;;2.92;;
15748;SDS011;7976;52.526;13.326;2023-08-17T04:53:13;7.82;;;2.47;;
15748;SDS011;7976;52.526;13.326;2023-08-17T04:55:40;8.00;;;2.50;;
15748;SDS011;7976;52.526;13.326;2023-08-17T04:58:06;7.40;;;2.60;;
15748;SDS011;7976;52.526;13.326;2023-08-17T05:00:33;7.22;;;2.85;;
15748;SDS011;7976;52.526;13.326;2023-08-17T05:03:01;9.18;;;2.90;;
15748;SDS011;7976;52.526;13.326;2023-08-17T05:05:34;6.65;;;2.28;;
15748;SDS011;7976;52.526;13.326;2023-08-17T05:08:05;10.30;;;2.90;;
15748;SDS011;7976;52.526;13.326;2023-08-17T05:10:32;8.02;;;2.45;;
15748;SDS011;7976;52.526;13.326;2023-08-17T05:12:59;9.68;;;2.70;;
15748;SDS011;7976;52.526;13.326;2023-08-17T05:15:27;8.98;;;3.13;;
15748;SDS011;7976;52.526;13.326;2023-08-17T05:17:55;9.30;;;2.75;;
15748;SDS011;7976;52.526;13.326;2023-08-17T05:20:23;7.35;;;2.60;;
15748;SDS011;7976;52.526;13.326;2023-08-17T05:22:51;10.65;;;2.90;;
15748;SDS011;7976;52.526;13.326;2023-08-17T05:25:18;5.75;;;2.15;;
15748;SDS011;7976;52.526;13.326;2023-08-17T05:27:45;8.18;;;2.40;;
15748;SDS011;7976;52.526;13.326;2023-08-17T05:30:14;6.72;;;2.33;;
15748;SDS011;7976;52.526;13.326;2023-08-17T05:32:41;8.88;;;2.60;;
15748;SDS011;7976;52.526;13.326;2023-08-17T05:35:08;7.65;;;2.20;;
15748;SDS011;7976;52.526;13.326;2023-08-17T05:37:36;7.95;;;2.60;;
15748;SDS011;7976;52.526;13.326;2023-08-17T05:40:05;6.95;;;2.28;;
15748;SDS011;7976;52.526;13.326;2023-08-17T05:42:34;7.78;;;2.65;;
15748;SDS011;7976;52.526;13.326;2023-08-17T05:45:00;7.10;;;2.20;;
15748;SDS011;7976;52.526;13.326;2023-08-17T05:47:27;9.07;;;2.65;;
15748;SDS011;7976;52.526;13.326;2023-08-17T05:49:54;7.25;;;2.50;;
15748;SDS011;7976;52.526;13.326;2023-08-17T05:52:21;9.85;;;2.35;;
15748;SDS011;7976;52.526;13.326;2023-08-17T05:54:48;8.25;;;2.58;;
15748;SDS011;7976;52.526;13.326;2023-08-17T05:57:16;6.85;;;2.40;;
15748;SDS011;7976;52.526;13.326;2023-08-17T05:59:43;8.77;;;2.20;;
15748;SDS011;7976;52.526;13.326;2023-08-17T06:02:10;7.60;;;2.20;;
15748;SDS011;7976;52.526;13.326;2023-08-17T06:04:37;9.52;;;2.28;;
15748;SDS011;7976;52.526;13.326;2023-08-17T06:07:03;6.25;;;2.22;;
15748;SDS011;7976;52.526;13.326;2023-08-17T06:09:30;8.10;;;2.75;;
15748;SDS011;7976;52.526;13.326;2023-08-17T06:11:57;7.82;;;2.70;;
15748;SDS011;7976;52.526;13.326;2023-08-17T06:14:25;7.88;;;2.60;;
15748;SDS011;7976;52.526;13.326;2023-08-17T06:16:52;8.70;;;2.55;;
15748;SDS011;7976;52.526;13.326;2023-08-17T06:19:19;6.63;;;2.40;;
15748;SDS011;7976;52.526;13.326;2023-08-17T06:21:45;7.88;;;2.30;;
15748;SDS011;7976;52.526;13.326;2023-08-17T06:24:12;9.75;;;2.50;;
15748;SDS011;7976;52.526;13.326;2023-08-17T06:26:39;10.13;;;2.75;;
15748;SDS011;7976;52.526;13.326;2023-08-17T06:29:06;8.25;;;2.63;;
15748;SDS011;7976;52.526;13.326;2023-08-17T06:31:34;12.80;;;3.60;;
15748;SDS011;7976;52.526;13.326;2023-08-17T06:34:01;9.73;;;3.00;;
15748;SDS011;7976;52.526;13.326;2023-08-17T06:36:30;6.82;;;2.50;;
15748;SDS011;7976;52.526;13.326;2023-08-17T06:38:58;7.25;;;2.17;;
15748;SDS011;7976;52.526;13.326;2023-08-17T06:41:25;9.95;;;2.63;;
15748;SDS011;7976;52.526;13.326;2023-08-17T06:43:52;8.27;;;2.72;;
15748;SDS011;7976;52.526;13.326;2023-08-17T06:46:19;7.63;;;2.60;;
15748;SDS011;7976;52.526;13.326;2023-08-17T06:48:47;6.28;;;2.33;;
15748;SDS011;7976;52.526;13.326;2023-08-17T06:51:14;10.65;;;2.53;;
15748;SDS011;7976;52.526;13.326;2023-08-17T06:53:40;7.30;;;2.85;;
15748;SDS011;7976;52.526;13.326;2023-08-17T06:56:08;8.30;;;2.75;;
15748;SDS011;7976;52.526;13.326;2023-08-17T06:58:35;7.20;;;2.90;;
15748;SDS011;7976;52.526;13.326;2023-08-17T07:01:02;8.18;;;2.67;;
15748;SDS011;7976;52.526;13.326;2023-08-17T07:03:29;8.00;;;2.58;;
15748;SDS011;7976;52.526;13.326;2023-08-17T07:05:57;8.93;;;2.58;;
15748;SDS011;7976;52.526;13.326;2023-08-17T07:08:24;7.85;;;2.63;;
15748;SDS011;7976;52.526;13.326;2023-08-17T07:10:51;9.18;;;2.88;;
15748;SDS011;7976;52.526;13.326;2023-08-17T07:13:18;9.27;;;2.75;;
15748;SDS011;7976;52.526;13.326;2023-08-17T07:15:44;7.93;;;2.88;;
15748;SDS011;7976;52.526;13.326;2023-08-17T07:18:11;10.98;;;3.15;;
15748;SDS011;7976;52.526;13.326;2023-08-17T07:20:38;7.38;;;2.75;;
15748;SDS011;7976;52.526;13.326;2023-08-17T07:23:06;10.15;;;2.90;;
15748;SDS011;7976;52.526;13.326;2023-08-17T07:25:33;8.82;;;2.67;;
15748;SDS011;7976;52.526;13.326;2023-08-17T07:28:00;10.25;;;2.70;;
15748;SDS011;7976;52.526;13.326;2023-08-17T07:30:27;7.85;;;2.70;;
15748;SDS011;7976;52.526;13.326;2023-08-17T07:32:54;7.47;;;3.00;;
15748;SDS011;7976;52.526;13.326;2023-08-17T07:35:20;7.43;;;2.78;;
15748;SDS011;7976;52.526;13.326;2023-08-17T07:37:47;9.90;;;3.03;;
15748;SDS011;7976;52.526;13.326;2023-08-17T07:40:15;8.35;;;2.83;;
15748;SDS011;7976;52.526;13.326;2023-08-17T07:42:42;10.48;;;3.00;;
15748;SDS011;7976;52.526;13.326;2023-08-17T07:45:09;10.07;;;2.80;;
15748;SDS011;7976;52.526;13.326;2023-08-17T07:47:36;7.90;;;2.63;;
15748;SDS011;7976;52.526;13.326;2023-08-17T07:50:04;10.75;;;2.85;;
15748;SDS011;7976;52.526;13.326;2023-08-17T07:52:33;10.85;;;3.05;;
15748;SDS011;7976;52.526;13.326;2023-08-17T07:55:00;12.52;;;2.75;;
15748;SDS011;7976;52.526;13.326;2023-08-17T07:57:28;10.70;;;3.03;;
15748;SDS011;7976;52.526;13.326;2023-08-17T07:59:55;7.88;;;2.83;;
15748;SDS011;7976;52.526;13.326;2023-08-17T08:02:22;9.13;;;2.60;;
15748;SDS011;7976;52.526;13.326;2023-08-17T08:04:48;10.65;;;3.65;;
15748;SDS011;7976;52.526;13.326;2023-08-17T08:07:15;10.80;;;2.72;;
15748;SDS011;7976;52.526;13.326;2023-08-17T08:09:42;7.15;;;2.40;;
15748;SDS011;7976;52.526;13.326;2023-08-17T08:12:09;10.95;;;3.15;;
15748;SDS011;7976;52.526;13.326;2023-08-17T08:14:37;10.80;;;2.90;;
15748;SDS011;7976;52.526;13.326;2023-08-17T08:17:03;7.78;;;2.70;;
15748;SDS011;7976;52.526;13.326;2023-08-17T08:19:30;9.80;;;3.00;;
15748;SDS011;7976;52.526;13.326;2023-08-17T08:21:58;8.82;;;2.85;;
15748;SDS011;7976;52.526;13.326;2023-08-17T08:24:25;9.93;;;2.80;;
15748;SDS011;7976;52.526;13.326;2023-08-17T08:26:56;8.13;;;2.65;;
15748;SDS011;7976;52.526;13.326;2023-08-17T08:29:23;7.65;;;2.70;;
15748;SDS011;7976;52.526;13.326;2023-08-17T08:31:51;9.13;;;2.75;;
15748;SDS011;7976;52.526;13.326;2023-08-17T08:34:18;9.07;;;3.15;;
15748;SDS011;7976;52.526;13.326;2023-08-17T08:36:45;8.93;;;3.13;;
15748;SDS011;7976;52.526;13.326;2023-08-17T08:39:13;8.02;;;2.70;;
15748;SDS011;7976;52.526;13.326;2023-08-17T08:41:41;8.23;;;3.17;;
15748;SDS011;7976;52.526;13.326;2023-08-17T08:44:08;9.50;;;3.08;;
15748;SDS011;7976;52.526;13.326;2023-08-17T08:46:35;9.23;;;3.45;;
15748;SDS011;7976;52.526;13.326;2023-08-17T08:49:08;11.02;;;3.00;;
15748;SDS011;7976;52.526;13.326;2023-08-17T08:51:38;8.23;;;3.30;;
15748;SDS011;7976;52.526;13.326;2023-08-17T08:54:12;10.80;;;3.90;;
15748;SDS011;7976;52.526;13.326;2023-08-17T08:56:44;9.85;;;3.33;;
15748;SDS011;7976;52.526;13.326;2023-08-17T08:59:14;10.20;;;3.53;;
15748;SDS011;7976;52.526;13.326;2023-08-17T09:01:43;9.05;;;3.40;;
15748;SDS011;7976;52.526;13.326;2023-08-17T09:04:11;9.52;;;3.17;;
15748;SDS011;7976;52.526;13.326;2023-08-17T09:06:38;9.00;;;3.80;;
15748;SDS011;7976;52.526;13.326;2023-08-17T09:09:07;8.40;;;3.35;;
15748;SDS011;7976;52.526;13.326;2023-08-17T09:11:36;10.48;;;3.45;;
15748;SDS011;7976;52.526;13.326;2023-08-17T09:14:03;10.55;;;3.42;;
15748;SDS011;7976;52.526;13.326;2023-08-17T09:16:34;9.57;;;3.80;;
15748;SDS011;7976;52.526;13.326;2023-08-17T09:19:00;9.00;;;3.50;;
15748;SDS011;7976;52.526;13.326;2023-08-17T09:21:31;8.65;;;3.13;;
15748;SDS011;7976;52.526;13.326;2023-08-17T09:23:58;8.70;;;3.47;;
15748;SDS011;7976;52.526;13.326;2023-08-17T09:26:25;11.65;;;3.60;;
15748;SDS011;7976;52.526;13.326;2023-08-17T09:28:58;7.88;;;3.50;;
15748;SDS011;7976;52.526;13.326;2023-08-17T09:31:27;10.07;;;3.85;;
15748;SDS011;7976;52.526;13.326;2023-08-17T09:33:58;12.32;;;3.80;;
15748;SDS011;7976;52.526;13.326;2023-08-17T09:36:33;8.85;;;3.50;;
15748;SDS011;7976;52.526;13.326;2023-08-17T09:39:02;11.50;;;3.80;;
15748;SDS011;7976;52.526;13.326;2023-08-17T09:41:29;10.23;;;3.58;;
15748;SDS011;7976;52.526;13.326;2023-08-17T09:43:56;8.60;;;3.45;;
15748;SDS011;7976;52.526;13.326;2023-08-17T09:46:23;13.20;;;4.10;;
15748;SDS011;7976;52.526;13.326;2023-08-17T09:48:51;9.50;;;3.70;;
15748;SDS011;7976;52.526;13.326;2023-08-17T09:51:20;9.68;;;3.30;;
15748;SDS011;7976;52.526;13.326;2023-08-17T09:53:52;8.43;;;3.80;;
15748;SDS011;7976;52.526;13.326;2023-08-17T09:56:19;11.38;;;3.80;;
15748;SDS011;7976;52.526;13.326;2023-08-17T09:58:49;9.25;;;3.88;;
15748;SDS011;7976;52.526;13.326;2023-08-17T10:01:18;7.53;;;3.45;;
15748;SDS011;7976;52.526;13.326;2023-08-17T10:03:47;10.35;;;3.75;;
15748;SDS011;7976;52.526;13.326;2023-08-17T10:06:17;12.32;;;5.53;;
15748;SDS011;7976;52.526;13.326;2023-08-17T10:08:54;11.52;;;3.80;;
15748;SDS011;7976;52.526;13.326;2023-08-17T10:11:24;9.00;;;3.63;;
15748;SDS011;7976;52.526;13.326;2023-08-17T10:13:58;12.15;;;4.03;;
15748;SDS011;7976;52.526;13.326;2023-08-17T10:16:33;10.43;;;3.70;;
15748;SDS011;7976;52.526;13.326;2023-08-17T10:19:12;11.15;;;4.90;;
15748;SDS011;7976;52.526;13.326;2023-08-17T10:21:50;8.90;;;3.58;;
15748;SDS011;7976;52.526;13.326;2023-08-17T10:24:29;9.18;;;3.42;;
15748;SDS011;7976;52.526;13.326;2023-08-17T10:27:01;10.10;;;3.53;;
15748;SDS011;7976;52.526;13.326;2023-08-17T10:29:29;10.77;;;4.70;;
15748;SDS011;7976;52.526;13.326;2023-08-17T10:31:58;10.73;;;3.53;;
15748;SDS011;7976;52.526;13.326;2023-08-17T10:34:27;9.00;;;3.40;;
15748;SDS011;7976;52.526;13.326;2023-08-17T10:36:55;8.48;;;3.55;;
15748;SDS011;7976;52.526;13.326;2023-08-17T10:39:25;9.18;;;3.33;;
15748;SDS011;7976;52.526;13.326;2023-08-17T10:41:56;10.40;;;3.38;;
15748;SDS011;7976;52.526;13.326;2023-08-17T10:44:39;11.20;;;4.10;;
15748;SDS011;7976;52.526;13.326;2023-08-17T10:47:19;14.70;;;6.03;;
15748;SDS011;7976;52.526;13.326;2023-08-17T10:49:50;16.42;;;8.35;;
15748;SDS011;7976;52.526;13.326;2023-08-17T10:52:28;16.88;;;8.73;;
15748;SDS011;7976;52.526;13.326;2023-08-17T10:55:03;10.77;;;5.05;;
15748;SDS011;7976;52.526;13.326;2023-08-17T10:57:35;10.10;;;3.80;;
15748;SDS011;7976;52.526;13.326;2023-08-17T11:00:07;7.90;;;3.45;;
15748;SDS011;7976;52.526;13.326;2023-08-17T11:02:57;10.63;;;4.07;;
15748;SDS011;7976;52.526;13.326;2023-08-17T11:05:36;11.20;;;4.20;;
15748;SDS011;7976;52.526;13.326;2023-08-17T11:08:27;12.27;;;4.03;;
15748;SDS011;7976;52.526;13.326;2023-08-17T11:11:05;11.50;;;4.20;;
15748;SDS011;7976;52.526;13.326;2023-08-17T11:13:36;9.63;;;3.75;;
15748;SDS011;7976;52.526;13.326;2023-08-17T11:16:05;9.93;;;3.80;;
15748;SDS011;7976;52.526;13.326;2023-08-17T11:18:35;10.60;;;4.35;;
15748;SDS011;7976;52.526;13.326;2023-08-17T11:21:02;10.60;;;4.18;;
15748;SDS011;7976;52.526;13.326;2023-08-17T11:23:31;9.52;;;4.00;;
15748;SDS011;7976;52.526;13.326;2023-08-17T11:25:59;9.07;;;3.60;;
15748;SDS011;7976;52.526;13.326;2023-08-17T11:28:29;10.70;;;4.20;;
15748;SDS011;7976;52.526;13.326;2023-08-17T11:31:01;10.43;;;4.97;;
15748;SDS011;7976;52.526;13.326;2023-08-17T11:33:32;10.95;;;5.57;;
15748;SDS011;7976;52.526;13.326;2023-08-17T11:36:04;10.00;;;4.85;;
15748;SDS011;7976;52.526;13.326;2023-08-17T11:38:33;8.43;;;3.72;;
15748;SDS011;7976;52.526;13.326;2023-08-17T11:41:03;10.68;;;3.97;;
15748;SDS011;7976;52.526;13.326;2023-08-17T11:43:33;10.45;;;4.22;;
15748;SDS011;7976;52.526;13.326;2023-08-17T11:46:01;8.05;;;3.75;;
15748;SDS011;7976;52.526;13.326;2023-08-17T11:48:28;9.32;;;3.88;;
15748;SDS011;7976;52.526;13.326;2023-08-17T11:50:56;9.82;;;4.20;;
15748;SDS011;7976;52.526;13.326;2023-08-17T11:53:23;10.20;;;3.88;;
15748;SDS011;7976;52.526;13.326;2023-08-17T11:55:50;19.20;;;10.13;;
15748;SDS011;7976;52.526;13.326;2023-08-17T11:58:17;15.48;;;6.97;;
15748;SDS011;7976;52.526;13.326;2023-08-17T12:04:12;10.30;;;4.57;;
15748;SDS011;7976;52.526;13.326;2023-08-17T12:06:41;9.32;;;4.05;;
15748;SDS011;7976;52.526;13.326;2023-08-17T12:09:10;11.68;;;4.40;;
15748;SDS011;7976;52.526;13.326;2023-08-17T12:11:39;12.77;;;5.10;;
15748;SDS011;7976;52.526;13.326;2023-08-17T12:14:09;11.68;;;4.80;;
15748;SDS011;7976;52.526;13.326;2023-08-17T12:16:45;10.02;;;4.05;;
15748;SDS011;7976;52.526;13.326;2023-08-17T12:19:14;8.85;;;4.40;;
15748;SDS011;7976;52.526;13.326;2023-08-17T12:21:42;9.77;;;4.20;;
15748;SDS011;7976;52.526;13.326;2023-08-17T12:24:09;8.70;;;4.07;;
15748;SDS011;7976;52.526;13.326;2023-08-17T12:26:40;11.18;;;4.90;;
15748;SDS011;7976;52.526;13.326;2023-08-17T12:29:08;8.65;;;4.20;;
15748;SDS011;7976;52.526;13.326;2023-08-17T12:31:35;12.27;;;4.72;;
15748;SDS011;7976;52.526;13.326;2023-08-17T12:34:02;9.48;;;4.70;;
15748;SDS011;7976;52.526;13.326;2023-08-17T12:36:32;12.35;;;4.95;;
15748;SDS011;7976;52.526;13.326;2023-08-17T12:39:02;10.52;;;4.90;;
15748;SDS011;7976;52.526;13.326;2023-08-17T12:41:30;14.95;;;5.68;;
15748;SDS011;7976;52.526;13.326;2023-08-17T12:43:57;9.85;;;4.55;;
15748;SDS011;7976;52.526;13.326;2023-08-17T12:46:24;9.70;;;4.65;;
15748;SDS011;7976;52.526;13.326;2023-08-17T12:48:51;8.88;;;4.32;;
15748;SDS011;7976;52.526;13.326;2023-08-17T12:51:18;12.00;;;4.90;;
15748;SDS011;7976;52.526;13.326;2023-08-17T12:53:46;13.60;;;4.70;;
15748;SDS011;7976;52.526;13.326;2023-08-17T12:56:13;9.48;;;4.60;;
15748;SDS011;7976;52.526;13.326;2023-08-17T12:58:40;11.38;;;5.63;;
15748;SDS011;7976;52.526;13.326;2023-08-17T13:01:07;15.70;;;9.02;;
15748;SDS011;7976;52.526;13.326;2023-08-17T13:03:34;11.00;;;5.78;;
15748;SDS011;7976;52.526;13.326;2023-08-17T13:06:01;12.10;;;5.50;;
15748;SDS011;7976;52.526;13.326;2023-08-17T13:08:27;10.50;;;5.50;;
15748;SDS011;7976;52.526;13.326;2023-08-17T13:10:56;9.10;;;4.57;;
15748;SDS011;7976;52.526;13.326;2023-08-17T13:13:23;15.25;;;7.50;;
15748;SDS011;7976;52.526;13.326;2023-08-17T13:15:49;10.75;;;5.13;;
15748;SDS011;7976;52.526;13.326;2023-08-17T13:18:16;10.43;;;5.03;;
15748;SDS011;7976;52.526;13.326;2023-08-17T13:20:43;12.60;;;5.28;;
15748;SDS011;7976;52.526;13.326;2023-08-17T13:23:10;11.60;;;5.18;;
15748;SDS011;7976;52.526;13.326;2023-08-17T13:25:37;9.45;;;4.90;;
15748;SDS011;7976;52.526;13.326;2023-08-17T13:28:06;9.73;;;4.72;;
15748;SDS011;7976;52.526;13.326;2023-08-17T13:30:32;12.20;;;4.55;;
15748;SDS011;7976;52.526;13.326;2023-08-17T13:32:59;10.52;;;4.90;;
15748;SDS011;7976;52.526;13.326;2023-08-17T13:35:26;9.82;;;4.82;;
15748;SDS011;7976;52.526;13.326;2023-08-17T13:37:53;9.20;;;4.70;;
15748;SDS011;7976;52.526;13.326;2023-08-17T13:40:20;11.15;;;4.97;;
15748;SDS011;7976;52.526;13.326;2023-08-17T13:42:47;10.63;;;4.95;;
15748;SDS011;7976;52.526;13.326;2023-08-17T13:45:16;8.70;;;4.22;;
15748;SDS011;7976;52.526;13.326;2023-08-17T13:47:45;9.88;;;4.43;;
15748;SDS011;7976;52.526;13.326;2023-08-17T13:50:15;10.38;;;4.82;;
15748;SDS011;7976;52.526;13.326;2023-08-17T13:52:43;10.10;;;4.88;;
15748;SDS011;7976;52.526;13.326;2023-08-17T13:55:10;12.50;;;6.53;;
15748;SDS011;7976;52.526;13.326;2023-08-17T13:57:37;9.88;;;5.32;;
15748;SDS011;7976;52.526;13.326;2023-08-17T14:00:04;10.93;;;4.72;;
15748;SDS011;7976;52.526;13.326;2023-08-17T14:02:35;10.25;;;5.10;;
15748;SDS011;7976;52.526;13.326;2023-08-17T14:05:01;11.52;;;5.25;;
15748;SDS011;7976;52.526;13.326;2023-08-17T14:07:29;9.70;;;4.97;;
15748;SDS011;7976;52.526;13.326;2023-08-17T14:09:56;9.40;;;4.90;;
15748;SDS011;7976;52.526;13.326;2023-08-17T14:12:23;9.82;;;4.47;;
15748;SDS011;7976;52.526;13.326;2023-08-17T14:14:50;13.05;;;5.35;;
15748;SDS011;7976;52.526;13.326;2023-08-17T14:17:17;9.57;;;4.93;;
15748;SDS011;7976;52.526;13.326;2023-08-17T14:19:46;12.05;;;5.60;;
15748;SDS011;7976;52.526;13.326;2023-08-17T14:22:12;11.20;;;6.00;;
15748;SDS011;7976;52.526;13.326;2023-08-17T14:24:39;10.00;;;4.55;;
15748;SDS011;7976;52.526;13.326;2023-08-17T14:27:08;15.20;;;7.88;;
15748;SDS011;7976;52.526;13.326;2023-08-17T14:29:34;12.70;;;5.45;;
15748;SDS011;7976;52.526;13.326;2023-08-17T14:32:01;10.75;;;5.40;;
15748;SDS011;7976;52.526;13.326;2023-08-17T14:34:28;11.95;;;5.07;;
15748;SDS011;7976;52.526;13.326;2023-08-17T14:37:04;9.20;;;4.32;;
15748;SDS011;7976;52.526;13.326;2023-08-17T14:39:33;11.77;;;5.03;;
15748;SDS011;7976;52.526;13.326;2023-08-17T14:42:00;11.25;;;5.40;;
15748;SDS011;7976;52.526;13.326;2023-08-17T14:44:27;9.98;;;4.70;;
15748;SDS011;7976;52.526;13.326;2023-08-17T14:46:53;9.27;;;4.68;;
15748;SDS011;7976;52.526;13.326;2023-08-17T14:49:20;12.20;;;5.30;;
15748;SDS011;7976;52.526;13.326;2023-08-17T14:51:47;13.10;;;5.68;;
15748;SDS011;7976;52.526;13.326;2023-08-17T14:54:15;10.43;;;4.55;;